Ash Hill, North Carolina
Current Conditions -  °F | °C
As of 8:55 AM on Saturday 01 Nov 2014 (Local Time) from KMWK Reporting Station
Moderate Rain Moderate Rain  
Wind Chill: 40°   Ceiling: 2000
Heat Index: 40°   Visibility: 5mi
Dew Point: 38°   Wind: 3mph
Humidity: 91%   Direction: 350°N
Pressure: 29.83"   Gusts: NA
Location:  36.3687°N, 80.588°W
Report Text: KMWK 011255Z AUTO 35003KT 5SM RA OVC020 05/03 A2983 RMK AO2 P0005 T00450031
Loading
Personal Weather Stations






























Interactive Weather Map
Tropical Storm Tracking
New forecast layout! Learn more

10-Day Weather Forecast

Advertisements
Track Severe Weather on mobile